Time;durP1;ratioP1;P1;durP2;ratioP2;P2;SDS_P1;SDS_P2;PMS_P1;PMS_P2;Temp;Humidity;BMP_temperature;BMP_pressure;BME280_temperature;BME280_humidity;BME280_pressure;Samples;Min_cycle;Max_cycle;Signal;HPM_P1;HPM_P2
2023/12/04 00:00:38;;;;;;;49.33;46.90;;;;;;;4.29;64.28;101157.56;5010908;28;20038;-72
2023/12/04 00:03:04;;;;;;;47.83;45.58;;;;;;;4.29;64.37;101153.03;5028045;28;20045;-74
2023/12/04 00:05:29;;;;;;;51.15;48.65;;;;;;;4.30;63.91;101151.19;5030523;28;20046;-71
2023/12/04 00:07:54;;;;;;;48.05;45.78;;;;;;;4.29;64.33;101146.88;5029655;28;20419;-71
2023/12/04 00:10:20;;;;;;;51.50;49.00;;;;;;;4.30;64.10;101143.16;5023159;28;20068;-71
2023/12/04 00:12:46;;;;;;;48.15;45.85;;;;;;;4.29;64.26;101136.19;5021852;28;20053;-71
2023/12/04 00:15:11;;;;;;;45.97;43.47;;;;;;;4.29;63.94;101136.19;5017041;28;20059;-71
2023/12/04 00:17:39;;;;;;;51.47;48.22;;;;;;;4.29;64.11;101142.34;5018696;28;20387;-71
2023/12/04 00:20:06;;;;;;;55.27;51.77;;;;;;;4.29;64.07;101133.50;5019269;28;20033;-74
2023/12/04 00:22:32;;;;;;;49.53;46.95;;;;;;;4.29;64.12;101128.16;5024054;28;20034;-71
2023/12/04 00:24:57;;;;;;;53.67;51.00;;;;;;;4.29;64.04;101128.97;5022410;28;20179;-70
2023/12/04 00:27:26;;;;;;;46.17;43.63;;;;;;;4.29;64.22;101122.81;5029498;28;20075;-71
2023/12/04 00:29:52;;;;;;;;;;;;;;;4.29;63.98;101120.94;5015946;28;20037;-72
2023/12/04 00:32:17;;;;;;;48.20;45.40;;;;;;;4.28;64.22;101108.63;5028711;28;20392;-71
2023/12/04 00:34:42;;;;;;;47.45;45.25;;;;;;;4.29;63.94;101114.78;5013406;28;20474;-72
2023/12/04 00:37:08;;;;;;;45.45;43.30;;;;;;;4.28;63.95;101113.09;5010505;28;20030;-73
2023/12/04 00:39:33;;;;;;;46.85;44.50;;;;;;;4.27;64.03;101101.59;5029571;28;20150;-72
2023/12/04 00:41:59;;;;;;;49.55;46.88;;;;;;;4.28;64.29;101103.25;5028673;28;20034;-72
2023/12/04 00:44:24;;;;;;;48.80;46.13;;;;;;;4.29;64.22;101096.06;5012818;28;20090;-70
2023/12/04 00:46:49;;;;;;;46.80;44.55;;;;;;;4.28;64.09;101095.25;5028433;28;20037;-71
2023/12/04 00:49:15;;;;;;;51.17;48.35;;;;;;;4.29;64.19;101096.88;5013084;28;20072;-71
2023/12/04 00:51:40;;;;;;;48.25;45.85;;;;;;;4.29;64.44;101096.88;5012634;28;20083;-71
2023/12/04 00:54:05;;;;;;;48.20;45.50;;;;;;;4.28;64.24;101087.22;5024866;28;20386;-72
2023/12/04 00:56:31;;;;;;;48.17;45.65;;;;;;;4.28;64.08;101087.22;5028465;28;20477;-71
2023/12/04 00:58:57;;;;;;;48.83;45.97;;;;;;;4.29;64.46;101086.19;5009622;28;20428;-70
2023/12/04 01:01:22;;;;;;;52.22;49.40;;;;;;;4.29;63.95;101077.34;5017141;28;20029;-71
2023/12/04 01:03:48;;;;;;;50.08;47.60;;;;;;;4.28;64.24;101084.53;5025654;28;20044;-73
2023/12/04 01:06:21;;;;;;;47.67;45.10;;;;;;;4.28;64.44;101084.53;5028524;28;20061;-72
2023/12/04 01:08:47;;;;;;;46.13;43.90;;;;;;;4.28;64.11;101078.34;5018842;28;20509;-72
2023/12/04 01:11:14;;;;;;;44.55;42.25;;;;;;;4.29;64.23;101080.84;5026482;28;20038;-72
2023/12/04 01:13:40;;;;;;;44.88;42.67;;;;;;;4.28;64.25;101079.19;5027955;28;20132;-71
2023/12/04 01:16:06;;;;;;;47.40;45.15;;;;;;;4.28;64.02;101071.19;5029654;28;20181;-72
2023/12/04 01:18:31;;;;;;;48.42;45.78;;;;;;;4.29;64.39;101072.00;5010982;28;20470;-71
2023/12/04 01:20:57;;;;;;;44.67;42.58;;;;;;;4.29;64.28;101070.13;5021480;28;20042;-71
2023/12/04 01:23:22;;;;;;;52.38;49.03;;;;;;;4.28;64.08;101055.13;5026035;28;20037;-71
2023/12/04 01:25:48;;;;;;;47.92;45.42;;;;;;;4.28;64.18;101059.63;5025516;28;20042;-71
2023/12/04 01:28:14;;;;;;;49.60;46.63;;;;;;;4.27;64.36;101058.81;5020169;28;20037;-71
2023/12/04 01:30:39;;;;;;;46.67;44.30;;;;;;;4.28;63.96;101052.47;5024305;28;20038;-71
2023/12/04 01:33:05;;;;;;;49.13;46.33;;;;;;;4.27;64.19;101056.13;5025086;28;20151;-71
2023/12/04 01:35:30;;;;;;;51.28;48.67;;;;;;;4.26;64.24;101054.50;5021346;28;20092;-71
2023/12/04 01:37:56;;;;;;;46.92;44.50;;;;;;;4.27;64.36;101055.31;5033095;28;20503;-72
2023/12/04 01:40:21;;;;;;;53.28;50.42;;;;;;;4.28;64.11;101048.94;5028105;28;20026;-72
2023/12/04 01:42:47;;;;;;;49.17;46.42;;;;;;;4.27;64.29;101042.75;5032784;28;20488;-72
2023/12/04 01:45:12;;;;;;;52.95;50.20;;;;;;;4.27;64.30;101037.41;5025009;28;20036;-75
2023/12/04 01:47:38;;;;;;;46.42;43.90;;;;;;;4.27;64.37;101042.75;5014891;28;20427;-75
2023/12/04 01:50:05;;;;;;;48.63;46.28;;;;;;;4.26;64.06;101035.78;5047500;28;20398;-72
2023/12/04 01:52:31;;;;;;;49.38;46.67;;;;;;;4.28;64.20;101032.88;5021240;28;20096;-72
2023/12/04 01:54:57;;;;;;;50.92;48.55;;;;;;;4.28;64.25;101028.38;5031537;28;20241;-73
2023/12/04 01:57:22;;;;;;;50.40;47.65;;;;;;;4.27;64.53;101026.72;5029879;28;20088;-72
2023/12/04 01:59:48;;;;;;;48.10;45.70;;;;;;;4.27;64.14;101024.03;5020491;28;20042;-72
2023/12/04 02:02:13;;;;;;;51.30;48.70;;;;;;;4.28;64.46;101023.03;5031718;28;20043;-76
2023/12/04 02:04:39;;;;;;;45.42;42.70;;;;;;;4.28;64.43;101019.50;5028051;28;20077;-71
2023/12/04 02:07:04;;;;;;;47.10;44.67;;;;;;;4.28;64.24;101016.84;5024486;28;20477;-73
2023/12/04 02:09:30;;;;;;;49.97;47.10;;;;;;;4.28;64.18;101008.81;5012380;28;20034;-72
2023/12/04 02:11:57;;;;;;;44.72;42.22;;;;;;;4.28;64.64;101012.34;5032516;28;20037;-71
2023/12/04 02:14:22;;;;;;;44.85;42.63;;;;;;;4.28;64.51;101008.81;5030287;28;20029;-72
2023/12/04 02:16:48;;;;;;;48.72;46.40;;;;;;;4.26;64.15;101001.00;5031978;28;20033;-72
2023/12/04 02:19:14;;;;;;;49.40;46.72;;;;;;;4.26;64.58;100994.84;5016899;28;20079;-72
2023/12/04 02:21:40;;;;;;;47.35;45.00;;;;;;;4.26;64.24;100994.84;5026739;28;20037;-72
2023/12/04 02:24:05;;;;;;;46.92;44.50;;;;;;;4.26;64.24;100998.34;5014071;28;20036;-73
2023/12/04 02:26:40;;;;;;;50.17;47.55;;;;;;;4.26;64.18;100998.34;5023024;28;20087;-72
2023/12/04 02:29:11;;;;;;;45.92;43.63;;;;;;;4.27;64.17;100991.13;5028805;28;20037;-71
2023/12/04 02:31:39;;;;;;;50.25;45.47;;;;;;;4.27;64.20;100988.47;5021106;28;20029;-71
2023/12/04 02:34:07;;;;;;;50.58;47.70;;;;;;;4.27;64.18;100989.28;5022996;28;20113;-71
2023/12/04 02:36:34;;;;;;;48.60;46.00;;;;;;;4.25;64.38;100977.94;5025981;28;20044;-72
2023/12/04 02:38:59;;;;;;;44.50;42.30;;;;;;;4.26;64.29;100976.13;5027172;28;20500;-71
2023/12/04 02:41:25;;;;;;;47.42;45.00;;;;;;;4.25;64.21;100977.94;5031673;28;20124;-71
2023/12/04 02:43:50;;;;;;;45.22;43.13;;;;;;;4.25;64.33;100969.09;5014931;28;20035;-71
2023/12/04 02:46:16;;;;;;;49.10;46.55;;;;;;;4.25;64.06;100969.09;5031238;28;20038;-72
2023/12/04 02:48:41;;;;;;;50.05;47.42;;;;;;;4.25;64.29;100961.09;5020882;28;20497;-71
2023/12/04 02:51:07;;;;;;;41.20;39.17;;;;;;;4.23;64.36;100961.25;5017320;28;20068;-72
2023/12/04 02:53:32;;;;;;;48.08;45.58;;;;;;;4.24;64.06;100954.09;5018131;28;20437;-72
2023/12/04 02:55:58;;;;;;;48.30;45.53;;;;;;;4.23;64.35;100942.56;5027959;28;20107;-71
2023/12/04 02:58:23;;;;;;;50.78;47.80;;;;;;;4.24;64.21;100944.22;5013781;28;20049;-73
2023/12/04 03:00:48;;;;;;;46.15;43.97;;;;;;;4.22;64.07;100946.25;5030997;28;20061;-72
2023/12/04 03:03:14;;;;;;;47.88;45.22;;;;;;;4.22;64.11;100934.75;5027588;28;20044;-72
2023/12/04 03:05:39;;;;;;;47.17;44.88;;;;;;;4.22;64.34;100932.06;5021202;28;20053;-74
2023/12/04 03:08:04;;;;;;;46.67;44.47;;;;;;;4.21;64.19;100927.72;5030862;28;20124;-73
2023/12/04 03:10:30;;;;;;;48.88;45.97;;;;;;;4.22;64.38;100932.06;5027588;28;20041;-73
2023/12/04 03:12:55;;;;;;;46.17;44.00;;;;;;;4.22;64.29;100926.72;5048335;28;20091;-73
2023/12/04 03:15:20;;;;;;;48.97;46.67;;;;;;;4.23;64.32;100926.50;5031075;28;20041;-76
2023/12/04 03:17:47;;;;;;;47.63;45.35;;;;;;;4.23;64.06;100917.66;5025248;28;20034;-73
2023/12/04 03:20:12;;;;;;;49.95;47.25;;;;;;;4.21;64.34;100909.84;5031017;28;20087;-74
2023/12/04 03:22:38;;;;;;;49.03;46.28;;;;;;;4.22;64.15;100908.81;5017452;28;20034;-74
2023/12/04 03:25:03;;;;;;;49.58;47.15;;;;;;;4.22;64.37;100906.16;5026547;28;20034;-73
2023/12/04 03:27:29;;;;;;;50.90;47.85;;;;;;;4.21;64.18;100899.16;5030030;28;20106;-72
2023/12/04 03:29:54;;;;;;;48.63;46.22;;;;;;;4.22;64.41;100894.63;5025544;28;20034;-73
2023/12/04 03:32:20;;;;;;;50.15;47.65;;;;;;;4.21;64.19;100893.81;5031409;28;20041;-74
2023/12/04 03:34:45;;;;;;;47.08;44.25;;;;;;;4.20;64.24;100886.81;5029649;28;20041;-73
2023/12/04 03:37:11;;;;;;;46.78;44.20;;;;;;;4.21;64.20;100890.28;5029245;28;20034;-73
2023/12/04 03:39:36;;;;;;;48.47;45.97;;;;;;;4.21;64.43;100875.09;5025565;28;20509;-74
2023/12/04 03:42:01;;;;;;;42.55;40.58;;;;;;;4.19;64.35;100885.16;5025842;28;20026;-72
2023/12/04 03:44:28;;;;;;;48.63;45.95;;;;;;;4.21;64.24;100879.59;5029556;28;20385;-72
2023/12/04 03:46:53;;;;;;;49.67;47.38;;;;;;;4.20;64.30;100881.47;5021285;28;20117;-72
2023/12/04 03:49:18;;;;;;;43.05;40.67;;;;;;;4.22;64.34;100884.75;5023340;28;20112;-73
2023/12/04 03:51:44;;;;;;;48.17;45.78;;;;;;;4.21;64.26;100869.75;5015631;28;20102;-72
2023/12/04 03:54:09;;;;;;;46.78;44.17;;;;;;;4.21;64.47;100874.25;5030802;28;20037;-72
2023/12/04 03:56:34;;;;;;;46.05;43.53;;;;;;;4.20;64.38;100873.44;5028889;28;20547;-72
2023/12/04 03:59:00;;;;;;;49.92;47.38;;;;;;;4.20;64.36;100869.94;5017288;28;20431;-73
2023/12/04 04:01:25;;;;;;;47.47;44.78;;;;;;;4.21;64.38;100863.56;5029098;28;20030;-76
2023/12/04 04:03:51;;;;;;;44.35;42.25;;;;;;;4.21;64.13;100871.56;5017816;28;20501;-72
2023/12/04 04:06:16;;;;;;;49.42;46.92;;;;;;;4.20;64.45;100860.06;5012822;28;20057;-75
2023/12/04 04:08:41;;;;;;;49.97;47.45;;;;;;;4.20;64.31;100854.72;5029996;28;20033;-72
2023/12/04 04:11:07;;;;;;;44.80;42.42;;;;;;;4.21;64.24;100851.03;5030237;28;20068;-71
2023/12/04 04:13:32;;;;;;;48.45;45.97;;;;;;;4.20;64.26;100849.38;5020674;28;20036;-73
2023/12/04 04:15:58;;;;;;;42.05;39.92;;;;;;;4.21;64.12;100842.16;5006440;28;20421;-73
2023/12/04 04:18:23;;;;;;;45.90;43.70;;;;;;;4.21;64.18;100834.16;5028099;28;20104;-74
2023/12/04 04:20:48;;;;;;;48.00;45.60;;;;;;;4.21;64.36;100828.81;5018009;28;20039;-74
2023/12/04 04:23:14;;;;;;;47.60;45.08;;;;;;;4.20;64.55;100838.69;5027610;28;20084;-72
2023/12/04 04:25:39;;;;;;;47.10;44.70;;;;;;;4.21;64.01;100829.66;5023544;28;20109;-73
2023/12/04 04:28:04;;;;;;;46.75;44.45;;;;;;;4.20;64.31;100821.81;5018159;28;20049;-73
2023/12/04 04:30:30;;;;;;;49.55;47.20;;;;;;;4.20;64.17;100824.50;5019602;28;20480;-72
2023/12/04 04:32:55;;;;;;;49.63;47.33;;;;;;;4.18;64.38;100824.69;5029433;28;20091;-73
2023/12/04 04:35:20;;;;;;;43.33;40.92;;;;;;;4.19;64.51;100817.50;5028223;28;20023;-73
2023/12/04 04:37:46;;;;;;;52.50;49.53;;;;;;;4.19;64.46;100817.50;5029031;28;20841;-73
2023/12/04 04:40:11;;;;;;;48.88;46.45;;;;;;;4.19;63.93;100817.50;5013606;28;20027;-73
2023/12/04 04:42:37;;;;;;;52.78;49.50;;;;;;;4.19;64.13;100815.66;5028346;28;20516;-71
2023/12/04 04:45:02;;;;;;;40.72;38.83;;;;;;;4.21;64.24;100823.44;5030502;28;20034;-72
2023/12/04 04:47:28;;;;;;;47.55;45.00;;;;;;;4.20;63.96;100816.47;5029893;28;20045;-73
2023/12/04 04:49:53;;;;;;;47.95;45.63;;;;;;;4.20;64.16;100817.28;5028398;28;20029;-73
2023/12/04 04:52:18;;;;;;;49.17;46.35;;;;;;;4.18;64.21;100813.97;5027753;28;20029;-74
2023/12/04 04:54:44;;;;;;;48.53;45.80;;;;;;;4.19;64.08;100814.84;5027085;28;20033;-73
2023/12/04 04:57:09;;;;;;;44.03;41.90;;;;;;;4.17;64.28;100817.69;5020687;28;20065;-73
2023/12/04 04:59:34;;;;;;;43.67;41.50;;;;;;;4.18;64.22;100815.84;5020482;28;20033;-73
2023/12/04 05:02:00;;;;;;;43.88;41.67;;;;;;;4.17;64.14;100812.34;5013137;28;21318;-72
2023/12/04 05:04:25;;;;;;;46.42;44.00;;;;;;;4.17;64.10;100806.19;5029097;28;20044;-71
2023/12/04 05:06:51;;;;;;;47.72;45.30;;;;;;;4.16;64.39;100808.03;5061340;28;20059;-72
2023/12/04 05:09:16;;;;;;;49.00;46.50;;;;;;;4.16;64.31;100796.50;5027235;28;20087;-71
2023/12/04 05:11:41;;;;;;;48.03;45.60;;;;;;;4.16;64.52;100783.13;5012640;28;20047;-74
2023/12/04 05:14:07;;;;;;;43.35;41.13;;;;;;;4.17;64.13;100779.44;5028709;28;20406;-71
2023/12/04 05:16:32;;;;;;;47.58;45.00;;;;;;;4.16;64.18;100778.63;5020926;28;20486;-77
2023/12/04 05:18:57;;;;;;;47.08;44.75;;;;;;;4.15;64.37;100768.13;5028730;28;20026;-73
2023/12/04 05:21:23;;;;;;;44.22;42.13;;;;;;;4.13;64.21;100762.97;5012983;28;20414;-72
2023/12/04 05:23:48;;;;;;;48.20;45.80;;;;;;;4.12;64.50;100758.66;5011042;28;20064;-74
2023/12/04 05:26:14;;;;;;;46.38;43.97;;;;;;;4.12;64.29;100753.31;5026089;28;20121;-71
2023/12/04 05:28:39;;;;;;;45.70;43.38;;;;;;;4.11;64.17;100754.34;5018183;28;20029;-71
2023/12/04 05:31:05;;;;;;;46.22;43.55;;;;;;;4.11;64.63;100746.31;5011595;28;20382;-72
2023/12/04 05:33:30;;;;;;;45.45;43.22;;;;;;;4.11;64.37;100743.66;5000378;28;20034;-72
2023/12/04 05:35:56;;;;;;;50.28;47.65;;;;;;;4.11;64.25;100746.31;5014737;28;20440;-73
2023/12/04 05:38:21;;;;;;;42.97;40.88;;;;;;;4.12;64.21;100761.31;5017591;28;20448;-74
2023/12/04 05:40:47;;;;;;;45.55;43.05;;;;;;;4.11;64.17;100754.34;5010154;28;20117;-72
2023/12/04 05:43:12;;;;;;;47.45;45.20;;;;;;;4.11;64.27;100749.00;5022039;28;20034;-71
2023/12/04 05:45:38;;;;;;;48.47;45.80;;;;;;;4.10;64.38;100745.47;5019079;28;20139;-73
2023/12/04 05:48:04;;;;;;;49.67;46.78;;;;;;;4.09;64.44;100743.84;5027113;28;20087;-72
2023/12/04 05:50:30;;;;;;;45.58;43.35;;;;;;;4.10;64.33;100736.63;5025989;28;20180;-72
2023/12/04 05:52:55;;;;;;;43.83;41.78;;;;;;;4.10;64.15;100732.09;5010783;28;20045;-73
2023/12/04 05:55:20;;;;;;;43.00;40.97;;;;;;;4.11;64.51;100738.31;5015847;28;20513;-75
2023/12/04 05:57:46;;;;;;;46.30;43.67;;;;;;;4.11;64.14;100728.44;5028605;28;20037;-71
2023/12/04 06:00:15;;;;;;;46.20;43.63;;;;;;;4.10;64.21;100729.44;5027523;28;20556;-73
2023/12/04 06:02:45;;;;;;;;;;;;;;;4.10;64.24;100731.28;5026762;28;20038;-73
2023/12/04 06:05:10;;;;;;;44.70;42.30;;;;;;;4.06;64.07;100722.84;5029021;28;19917;-73
2023/12/04 06:07:37;;;;;;;44.75;42.55;;;;;;;4.07;64.28;100721.00;5029267;28;20052;-77
2023/12/04 06:10:06;;;;;;;39.50;37.53;;;;;;;4.06;64.18;100717.50;5025192;28;20065;-72
2023/12/04 06:12:31;;;;;;;41.25;39.20;;;;;;;4.07;64.29;100715.66;5025087;28;20028;-71
2023/12/04 06:14:58;;;;;;;45.40;43.00;;;;;;;4.07;63.94;100711.13;5013741;28;20026;-75
2023/12/04 06:17:24;;;;;;;46.67;44.35;;;;;;;4.08;64.24;100706.59;5026167;28;20501;-74
2023/12/04 06:19:49;;;;;;;48.78;46.15;;;;;;;4.07;64.44;100704.97;5027416;28;20044;-72
2023/12/04 06:22:18;;;;;;;42.88;40.70;;;;;;;4.07;64.54;100704.97;5027935;28;20033;-72
2023/12/04 06:24:44;;;;;;;49.33;46.55;;;;;;;4.08;64.22;100701.25;5028733;28;20034;-75
2023/12/04 06:27:14;;;;;;;44.08;42.03;;;;;;;4.08;64.35;100701.25;5014733;28;20042;-73
2023/12/04 06:29:40;;;;;;;52.20;49.22;;;;;;;4.10;64.17;100694.69;5031903;28;20029;-75
2023/12/04 06:32:06;;;;;;;45.67;43.42;;;;;;;4.10;64.38;100700.03;5014448;28;20033;-73
2023/12/04 06:34:32;;;;;;;48.03;45.70;;;;;;;4.11;64.35;100693.69;5019781;28;20046;-71
2023/12/04 06:36:58;;;;;;;47.70;44.95;;;;;;;4.11;64.44;100698.22;5031675;28;20091;-72
2023/12/04 06:39:28;;;;;;;49.40;47.00;;;;;;;4.12;64.35;100697.16;5015023;28;20083;-73
2023/12/04 06:41:54;;;;;;;46.53;43.80;;;;;;;4.14;64.26;100692.44;5015119;28;20108;-74
2023/12/04 06:44:20;;;;;;;46.45;44.10;;;;;;;4.15;64.26;100693.25;5030240;28;20159;-72
2023/12/04 06:46:50;;;;;;;49.60;46.78;;;;;;;4.15;64.10;100686.06;5029680;28;20045;-74
2023/12/04 06:49:17;;;;;;;47.22;44.72;;;;;;;4.16;64.36;100685.06;5019568;28;20088;-74
2023/12/04 06:51:42;;;;;;;46.60;44.30;;;;;;;4.14;64.07;100673.72;5031845;28;20099;-75
2023/12/04 06:54:08;;;;;;;47.15;44.75;;;;;;;4.16;64.18;100668.16;5032268;28;20482;-75
2023/12/04 06:56:33;;;;;;;44.85;42.55;;;;;;;4.16;64.05;100668.16;5030035;28;20036;-74
2023/12/04 06:58:58;;;;;;;43.75;41.42;;;;;;;4.13;64.31;100669.41;5020719;28;20060;-72
2023/12/04 07:01:24;;;;;;;51.42;48.83;;;;;;;4.15;64.36;100666.53;5018166;28;20041;-75
2023/12/04 07:03:49;;;;;;;44.03;41.72;;;;;;;4.13;64.03;100666.72;5023497;28;20042;-76
2023/12/04 07:06:15;;;;;;;44.97;42.63;;;;;;;4.13;64.10;100650.69;5024900;28;20049;-74
2023/12/04 07:08:40;;;;;;;43.17;41.05;;;;;;;4.15;64.21;100650.50;5047892;28;20394;-77
2023/12/04 07:11:07;;;;;;;49.80;47.15;;;;;;;4.16;63.90;100660.16;5029948;28;20059;-72
2023/12/04 07:13:33;;;;;;;43.33;41.25;;;;;;;4.15;64.06;100664.69;5030527;28;20104;-73
2023/12/04 07:15:59;;;;;;;49.10;46.55;;;;;;;4.16;64.20;100661.00;5021179;28;20084;-73
2023/12/04 07:18:25;;;;;;;43.75;41.70;;;;;;;4.16;63.92;100655.66;5015716;28;20557;-73
2023/12/04 07:20:51;;;;;;;46.90;44.53;;;;;;;4.17;64.14;100645.78;5014754;28;20164;-73
2023/12/04 07:23:16;;;;;;;43.47;41.38;;;;;;;4.18;64.09;100652.75;5020122;28;20030;-72
2023/12/04 07:25:41;;;;;;;44.53;42.40;;;;;;;4.18;63.92;100650.09;5021105;28;20113;-73
2023/12/04 07:28:07;;;;;;;46.35;43.80;;;;;;;4.18;63.78;100653.56;5022586;28;20045;-74
2023/12/04 07:30:33;;;;;;;42.97;40.88;;;;;;;4.17;63.77;100651.94;5022732;28;20374;-76
2023/12/04 07:32:58;;;;;;;47.67;45.28;;;;;;;4.18;63.87;100640.19;5021357;28;20123;-72
2023/12/04 07:35:25;;;;;;;43.75;41.55;;;;;;;4.17;63.99;100645.78;5020874;28;20033;-71
2023/12/04 07:37:51;;;;;;;45.92;43.50;;;;;;;4.18;64.03;100645.56;5019973;28;20505;-74
2023/12/04 07:40:16;;;;;;;44.05;41.95;;;;;;;4.19;64.03;100633.84;5021664;28;20037;-72
2023/12/04 07:42:42;;;;;;;47.35;44.97;;;;;;;4.18;64.07;100637.53;5030053;28;20038;-75
2023/12/04 07:45:10;;;;;;;46.13;43.83;;;;;;;4.19;64.02;100646.41;5031195;28;20114;-77
2023/12/04 07:47:35;;;;;;;48.17;45.30;;;;;;;4.18;64.16;100650.91;5022226;28;20425;-73
2023/12/04 07:50:01;;;;;;;47.08;44.65;;;;;;;4.19;63.98;100641.06;5023658;28;20040;-72
2023/12/04 07:52:26;;;;;;;44.28;42.08;;;;;;;4.18;63.79;100642.88;5027759;28;20112;-74
2023/12/04 07:54:52;;;;;;;44.75;42.22;;;;;;;4.17;63.94;100638.56;5027856;28;20108;-74
2023/12/04 07:57:18;;;;;;;43.65;41.35;;;;;;;4.17;63.86;100646.59;5027535;28;20030;-78
2023/12/04 07:59:44;;;;;;;44.08;41.72;;;;;;;4.18;63.71;100631.38;5028602;28;20052;-79
2023/12/04 08:02:09;;;;;;;43.13;41.03;;;;;;;4.17;64.11;100633.22;5010081;28;20033;-74
2023/12/04 08:04:34;;;;;;;49.30;46.58;;;;;;;4.16;63.82;100633.41;4996560;28;20037;-76
2023/12/04 08:07:00;;;;;;;47.55;44.95;;;;;;;4.16;64.17;100626.25;4994837;28;20049;-75
2023/12/04 08:09:25;;;;;;;50.25;47.80;;;;;;;4.16;63.84;100617.38;5004483;28;20489;-74
2023/12/04 08:11:51;;;;;;;49.15;46.63;;;;;;;4.17;64.05;100619.84;5011416;28;20124;-74
2023/12/04 08:14:17;;;;;;;42.60;40.40;;;;;;;4.17;63.99;100622.53;5028844;28;20389;-74
2023/12/04 08:16:42;;;;;;;47.63;45.28;;;;;;;4.16;63.69;100618.22;5028389;28;20109;-73
2023/12/04 08:19:07;;;;;;;46.10;43.72;;;;;;;4.17;63.83;100617.19;5025677;28;20242;-73
2023/12/04 08:21:33;;;;;;;42.55;40.55;;;;;;;4.16;64.00;100604.84;5021225;28;20508;-75
2023/12/04 08:23:58;;;;;;;55.30;52.08;;;;;;;4.17;63.98;100603.81;5012882;28;20048;-74
2023/12/04 08:26:25;;;;;;;49.90;47.30;;;;;;;4.16;63.88;100604.84;5028580;28;20526;-74
2023/12/04 08:28:53;;;;;;;44.00;41.80;;;;;;;4.17;63.74;100600.31;5025310;28;20045;-79
2023/12/04 08:31:19;;;;;;;43.00;40.80;;;;;;;4.18;63.65;100596.63;5040613;28;20033;-72
2023/12/04 08:33:45;;;;;;;46.50;43.90;;;;;;;4.17;63.53;100595.78;5024806;28;20048;-77
2023/12/04 08:36:11;;;;;;;48.50;46.10;;;;;;;4.18;63.93;100592.09;5028323;28;20738;-74
2023/12/04 08:38:37;;;;;;;42.60;40.25;;;;;;;4.16;63.83;100583.47;5027815;28;20044;-74
2023/12/04 08:41:03;;;;;;;46.88;44.10;;;;;;;4.16;63.69;100578.13;5023665;28;20033;-76
2023/12/04 08:43:29;;;;;;;46.25;43.83;;;;;;;4.17;63.81;100589.63;5012431;28;20044;-75
2023/12/04 08:45:55;;;;;;;50.22;47.63;;;;;;;4.17;63.64;100582.44;5008491;28;20034;-73
2023/12/04 08:48:20;;;;;;;44.65;42.45;;;;;;;4.18;63.84;100581.38;5010115;28;20041;-76
2023/12/04 08:50:45;;;;;;;44.25;42.13;;;;;;;4.19;63.66;100579.56;5001360;28;20577;-74
2023/12/04 08:53:12;;;;;;;43.92;41.72;;;;;;;4.19;63.89;100568.88;5017285;28;20035;-74
2023/12/04 08:55:37;;;;;;;41.38;39.30;;;;;;;4.20;63.95;100570.50;5011728;28;20030;-74
2023/12/04 08:58:03;;;;;;;49.25;46.42;;;;;;;4.19;64.04;100572.38;5016749;28;20568;-74
2023/12/04 09:00:28;;;;;;;48.15;45.38;;;;;;;4.20;63.57;100565.97;5027551;28;20078;-73
2023/12/04 09:02:54;;;;;;;50.33;47.53;;;;;;;4.20;63.90;100576.66;5051862;28;20079;-75
2023/12/04 09:05:19;;;;;;;45.05;42.95;;;;;;;4.21;63.75;100569.47;5009058;28;20081;-74
2023/12/04 09:07:45;;;;;;;43.50;41.47;;;;;;;4.22;63.99;100568.47;5026691;28;20045;-78
2023/12/04 09:10:10;;;;;;;42.05;39.80;;;;;;;4.22;63.59;100566.59;5027734;28;20120;-75
2023/12/04 09:12:37;;;;;;;44.50;42.28;;;;;;;4.23;63.48;100572.75;5011489;28;20124;-74
2023/12/04 09:15:04;;;;;;;43.58;41.13;;;;;;;4.23;63.98;100575.44;5026127;28;20392;-75
2023/12/04 09:17:30;;;;;;;46.13;43.92;;;;;;;4.24;63.85;100572.56;5022872;28;20544;-73
2023/12/04 09:19:55;;;;;;;44.85;42.35;;;;;;;4.24;63.80;100564.53;5011126;28;20065;-75
2023/12/04 09:22:20;;;;;;;45.85;43.65;;;;;;;4.23;63.50;100565.56;5026365;28;20045;-74
2023/12/04 09:24:46;;;;;;;46.33;44.05;;;;;;;4.24;63.73;100561.06;5026770;28;20389;-75
2023/12/04 09:27:11;;;;;;;50.85;48.22;;;;;;;4.23;63.58;100559.38;5023775;28;20108;-75
2023/12/04 09:29:37;;;;;;;49.90;47.50;;;;;;;4.25;63.83;100568.03;5010150;28;20470;-74
2023/12/04 09:32:03;;;;;;;46.95;44.30;;;;;;;4.24;63.95;100564.53;5025628;28;20040;-75
2023/12/04 09:34:28;;;;;;;41.78;39.67;;;;;;;4.25;63.63;100562.69;5029319;28;20042;-74
2023/12/04 09:36:53;;;;;;;44.90;42.65;;;;;;;4.26;63.47;100562.50;5026397;28;20037;-73
2023/12/04 09:39:19;;;;;;;43.00;40.88;;;;;;;4.26;63.80;100559.00;5010572;28;20034;-75
2023/12/04 09:41:46;;;;;;;45.33;42.88;;;;;;;4.25;63.50;100563.50;5009975;28;20056;-81
2023/12/04 09:44:12;;;;;;;44.15;41.78;;;;;;;4.25;63.91;100557.34;5027206;28;20029;-75
2023/12/04 09:46:38;;;;;;;43.92;41.83;;;;;;;4.24;63.45;100556.53;5024527;28;20041;-75
2023/12/04 09:49:05;;;;;;;45.80;43.38;;;;;;;4.26;63.77;100553.66;5017842;28;20079;-75
2023/12/04 09:51:30;;;;;;;42.33;40.22;;;;;;;4.26;63.51;100549.13;5026760;28;20042;-72
2023/12/04 09:53:57;;;;;;;45.08;42.70;;;;;;;4.27;63.70;100545.41;5023748;28;20486;-76
2023/12/04 09:56:23;;;;;;;43.30;41.10;;;;;;;4.29;63.39;100547.91;5025455;28;20041;-75
2023/12/04 09:58:57;;;;;;;47.38;44.92;;;;;;;4.29;63.58;100540.69;5029457;28;20037;-75
2023/12/04 10:01:23;;;;;;;47.95;45.67;;;;;;;4.29;63.68;100537.19;5031440;28;20025;-74
2023/12/04 10:03:48;;;;;;;47.70;45.25;;;;;;;4.28;63.54;100539.06;5031941;28;20037;-74
2023/12/04 10:06:17;;;;;;;46.13;43.80;;;;;;;4.27;63.45;100532.03;5008064;28;20053;-75
2023/12/04 10:08:45;;;;;;;44.92;42.75;;;;;;;4.28;63.41;100525.69;5014535;28;20424;-75
2023/12/04 10:11:12;;;;;;;45.67;43.22;;;;;;;4.28;63.46;100524.84;5030588;28;20030;-75
2023/12/04 10:13:40;;;;;;;46.58;44.20;;;;;;;4.28;63.35;100520.34;5030873;28;20033;-74
2023/12/04 10:16:06;;;;;;;44.65;42.28;;;;;;;4.28;63.85;100519.50;5029037;28;20029;-75
2023/12/04 10:18:31;;;;;;;46.13;43.85;;;;;;;4.28;63.90;100509.66;5026052;28;20080;-76
2023/12/04 10:20:58;;;;;;;43.75;41.55;;;;;;;4.30;63.40;100506.75;5030741;28;20073;-75
2023/12/04 10:23:41;;;;;;;45.47;42.80;;;;;;;4.30;63.65;100504.06;5031717;28;20481;-74
2023/12/04 10:26:07;;;;;;;48.55;46.05;;;;;;;4.31;63.45;100498.53;5030055;28;20044;-77
2023/12/04 10:28:34;;;;;;;40.53;38.47;;;;;;;4.32;63.72;100499.34;5047296;28;20037;-76
2023/12/04 10:30:59;;;;;;;48.50;45.88;;;;;;;4.33;63.38;100487.59;5015857;28;20030;-75
2023/12/04 10:33:28;;;;;;;46.78;44.58;;;;;;;4.33;63.61;100492.94;5031873;28;20830;-75
2023/12/04 10:35:53;;;;;;;44.75;42.47;;;;;;;4.33;63.21;100475.09;5013922;28;20037;-75
2023/12/04 10:38:19;;;;;;;47.63;44.80;;;;;;;4.35;63.45;100474.84;5023637;28;20413;-75
2023/12/04 10:40:44;;;;;;;47.80;45.40;;;;;;;4.36;63.25;100465.81;5018497;28;20030;-81
2023/12/04 10:43:21;;;;;;;46.58;44.17;;;;;;;4.36;63.30;100462.31;5031193;28;20063;-74
2023/12/04 10:45:48;;;;;;;47.05;44.67;;;;;;;4.37;63.60;100464.78;5030295;28;20386;-75
2023/12/04 10:48:16;;;;;;;47.88;45.38;;;;;;;4.36;63.46;100457.81;5009692;28;20042;-76
2023/12/04 10:50:43;;;;;;;47.88;45.55;;;;;;;4.36;63.57;100455.13;5026753;28;20038;-75
2023/12/04 10:53:11;;;;;;;47.85;45.28;;;;;;;4.37;63.38;100443.38;5029310;28;20041;-73
2023/12/04 10:55:37;;;;;;;44.88;42.65;;;;;;;4.38;63.47;100445.03;5031934;28;20029;-73
2023/12/04 10:58:07;;;;;;;45.42;43.03;;;;;;;4.40;63.60;100447.50;5016773;28;20160;-76
2023/12/04 11:00:34;;;;;;;49.03;46.55;;;;;;;4.41;63.38;100441.94;5013785;28;20114;-80
2023/12/04 11:03:07;;;;;;;43.20;41.10;;;;;;;4.41;63.25;100441.09;5014239;28;20044;-74
2023/12/04 11:05:37;;;;;;;47.30;44.88;;;;;;;4.41;63.39;100438.44;5013813;28;20026;-74
2023/12/04 11:08:06;;;;;;;42.33;40.28;;;;;;;4.41;63.33;100435.75;5019764;28;20040;-72
2023/12/04 11:10:33;;;;;;;47.35;45.15;;;;;;;4.40;63.26;100431.44;5031184;28;20037;-74